createdAt,value
2022-08-28T00:02:25.227Z,100.00
2022-08-28T00:04:51.836Z,100.00
2022-08-28T00:07:18.556Z,100.00
2022-08-28T00:09:44.894Z,100.00
2022-08-28T00:12:12.330Z,100.00
2022-08-28T00:14:39.269Z,100.00
2022-08-28T00:17:05.670Z,100.00
2022-08-28T00:19:36.651Z,100.00
2022-08-28T00:22:05.402Z,100.00
2022-08-28T00:24:31.849Z,100.00
2022-08-28T00:27:16.905Z,100.00
2022-08-28T00:29:44.994Z,100.00
2022-08-28T00:32:11.323Z,100.00
2022-08-28T00:34:38.656Z,100.00
2022-08-28T00:37:05.173Z,100.00
2022-08-28T00:39:32.416Z,100.00
2022-08-28T00:41:59.112Z,100.00
2022-08-28T00:44:27.792Z,100.00
2022-08-28T00:46:56.795Z,100.00
2022-08-28T00:49:26.246Z,100.00
2022-08-28T00:52:08.468Z,100.00
2022-08-28T00:54:58.613Z,100.00
2022-08-28T00:57:32.105Z,100.00
2022-08-28T00:59:58.710Z,100.00
2022-08-28T01:02:26.491Z,100.00
2022-08-28T01:04:53.646Z,100.00
2022-08-28T01:07:23.092Z,100.00
2022-08-28T01:09:53.864Z,100.00
2022-08-28T01:12:28.390Z,100.00
2022-08-28T01:14:59.882Z,100.00
2022-08-28T01:17:31.152Z,100.00
2022-08-28T01:20:02.841Z,100.00
2022-08-28T01:22:37.212Z,100.00
2022-08-28T01:25:07.070Z,100.00
2022-08-28T01:27:34.075Z,100.00
2022-08-28T01:30:00.467Z,100.00
2022-08-28T01:32:31.935Z,100.00
2022-08-28T01:34:59.140Z,100.00
2022-08-28T01:37:25.644Z,100.00
2022-08-28T01:39:52.139Z,100.00
2022-08-28T01:42:18.612Z,100.00
2022-08-28T01:44:45.036Z,100.00
2022-08-28T01:47:11.443Z,100.00
2022-08-28T01:49:37.819Z,100.00
2022-08-28T01:52:04.656Z,100.00
2022-08-28T01:54:31.577Z,100.00
2022-08-28T01:56:58.414Z,100.00
2022-08-28T01:59:24.803Z,100.00
2022-08-28T02:01:51.170Z,100.00
2022-08-28T02:04:17.718Z,100.00
2022-08-28T02:06:44.139Z,100.00
2022-08-28T02:09:14.370Z,100.00
2022-08-28T02:11:43.058Z,100.00
2022-08-28T02:14:13.060Z,100.00
2022-08-28T02:16:39.448Z,100.00
2022-08-28T02:19:06.029Z,100.00
2022-08-28T02:21:32.481Z,100.00
2022-08-28T02:23:59.003Z,100.00
2022-08-28T02:26:25.939Z,100.00
2022-08-28T02:28:52.308Z,100.00
2022-08-28T02:31:18.761Z,100.00
2022-08-28T02:33:45.713Z,100.00
2022-08-28T02:36:14.484Z,100.00
2022-08-28T02:38:42.087Z,100.00
2022-08-28T02:41:09.105Z,100.00
2022-08-28T02:43:35.661Z,100.00
2022-08-28T02:46:02.853Z,100.00
2022-08-28T02:48:35.529Z,100.00
2022-08-28T02:51:09.021Z,100.00
2022-08-28T02:53:36.383Z,100.00
2022-08-28T02:56:04.708Z,100.00
2022-08-28T02:58:32.655Z,100.00
2022-08-28T03:01:07.363Z,100.00
2022-08-28T03:03:34.058Z,100.00
2022-08-28T03:06:02.908Z,100.00
2022-08-28T03:08:31.478Z,100.00
2022-08-28T03:10:58.524Z,100.00
2022-08-28T03:13:27.299Z,100.00
2022-08-28T03:15:55.863Z,100.00
2022-08-28T03:18:23.300Z,100.00
2022-08-28T03:20:49.668Z,100.00
2022-08-28T03:23:27.975Z,100.00
2022-08-28T03:26:08.883Z,100.00
2022-08-28T03:28:45.042Z,100.00
2022-08-28T03:31:14.370Z,100.00
2022-08-28T03:33:42.766Z,100.00
2022-08-28T03:36:15.578Z,100.00
2022-08-28T03:38:42.171Z,100.00
2022-08-28T03:41:14.429Z,100.00
2022-08-28T03:43:41.685Z,100.00
2022-08-28T03:46:13.622Z,100.00
2022-08-28T03:48:42.241Z,100.00
2022-08-28T03:51:15.745Z,100.00
2022-08-28T03:53:44.006Z,100.00
2022-08-28T03:56:13.596Z,100.00
2022-08-28T03:58:41.043Z,100.00
2022-08-28T04:01:08.322Z,100.00
2022-08-28T04:03:35.273Z,100.00
2022-08-28T04:06:01.846Z,100.00
2022-08-28T04:08:29.388Z,100.00
2022-08-28T04:10:56.362Z,100.00
2022-08-28T04:13:23.304Z,100.00
2022-08-28T04:16:00.964Z,100.00
2022-08-28T04:18:28.976Z,100.00
2022-08-28T04:21:05.496Z,100.00
2022-08-28T04:23:31.976Z,100.00
2022-08-28T04:25:58.345Z,100.00
2022-08-28T04:28:25.807Z,100.00
2022-08-28T04:30:54.522Z,100.00
2022-08-28T04:33:22.172Z,100.00
2022-08-28T04:35:49.125Z,100.00
2022-08-28T04:38:15.763Z,100.00
2022-08-28T04:40:43.079Z,100.00
2022-08-28T04:43:09.589Z,100.00
2022-08-28T04:45:43.653Z,100.00
2022-08-28T04:48:13.511Z,100.00
2022-08-28T04:50:45.735Z,100.00
2022-08-28T04:53:13.438Z,100.00
2022-08-28T04:55:52.316Z,100.00
2022-08-28T04:58:20.552Z,100.00
2022-08-28T05:00:51.859Z,100.00
2022-08-28T05:03:18.366Z,100.00
2022-08-28T05:05:47.760Z,100.00
2022-08-28T05:08:15.891Z,100.00
2022-08-28T05:10:43.252Z,100.00
2022-08-28T05:13:11.758Z,100.00
2022-08-28T05:15:44.456Z,100.00
2022-08-28T05:18:13.522Z,100.00
2022-08-28T05:20:42.821Z,100.00
2022-08-28T05:23:10.016Z,100.00
2022-08-28T05:25:38.261Z,100.00
2022-08-28T05:28:05.908Z,100.00
2022-08-28T05:30:35.469Z,100.00
2022-08-28T05:33:02.004Z,100.00
2022-08-28T05:35:28.345Z,100.00
2022-08-28T05:37:54.856Z,100.00
2022-08-28T05:40:22.275Z,100.00
2022-08-28T05:42:49.994Z,100.00
2022-08-28T05:45:16.905Z,100.00
2022-08-28T05:47:43.845Z,100.00
2022-08-28T05:50:13.541Z,100.00
2022-08-28T05:52:43.975Z,100.00
2022-08-28T05:55:12.733Z,100.00
2022-08-28T05:57:39.894Z,100.00
2022-08-28T06:00:07.842Z,100.00
2022-08-28T06:02:35.016Z,100.00
2022-08-28T06:05:02.505Z,100.00
2022-08-28T06:07:29.019Z,100.00
2022-08-28T06:09:55.690Z,100.00
2022-08-28T06:12:22.335Z,100.00
2022-08-28T06:14:49.190Z,100.00
2022-08-28T06:17:16.346Z,99.90
2022-08-28T06:19:49.847Z,99.51
2022-08-28T06:22:16.255Z,99.21
2022-08-28T06:24:42.756Z,98.50
2022-08-28T06:27:09.119Z,98.26
2022-08-28T06:29:35.563Z,97.66
2022-08-28T06:32:04.334Z,98.25
2022-08-28T06:34:31.349Z,97.71
2022-08-28T06:36:57.785Z,97.07
2022-08-28T06:39:24.208Z,96.15
2022-08-28T06:41:50.668Z,96.05
2022-08-28T06:44:19.827Z,95.06
2022-08-28T06:46:49.955Z,94.65
2022-08-28T06:49:16.701Z,95.06
2022-08-28T06:51:43.711Z,94.79
2022-08-28T06:54:10.565Z,94.16
2022-08-28T06:56:38.229Z,93.06
2022-08-28T06:59:05.415Z,92.47
2022-08-28T07:01:35.271Z,92.55
2022-08-28T07:04:06.686Z,91.82
2022-08-28T07:06:36.145Z,91.06
2022-08-28T07:09:05.335Z,90.68
2022-08-28T07:11:33.937Z,90.50
2022-08-28T07:14:01.101Z,89.42
2022-08-28T07:16:31.010Z,89.11
2022-08-28T07:18:58.764Z,88.19
2022-08-28T07:21:26.269Z,87.80
2022-08-28T07:23:53.376Z,87.27
2022-08-28T07:26:23.933Z,87.22
2022-08-28T07:28:51.406Z,86.83
2022-08-28T07:31:21.500Z,86.53
2022-08-28T07:33:48.722Z,84.58
2022-08-28T07:36:29.388Z,84.49
2022-08-28T07:38:58.036Z,84.26
2022-08-28T07:41:27.494Z,82.89
2022-08-28T07:44:13.159Z,83.71
2022-08-28T07:46:41.110Z,81.92
2022-08-28T07:49:08.696Z,80.59
2022-08-28T07:51:35.958Z,80.17
2022-08-28T07:54:03.855Z,78.42
2022-08-28T07:56:31.637Z,78.68
2022-08-28T07:58:59.176Z,78.93
2022-08-28T08:01:30.610Z,78.42
2022-08-28T08:04:01.514Z,76.48
2022-08-28T08:06:34.040Z,77.29
2022-08-28T08:09:01.755Z,74.39
2022-08-28T08:11:28.184Z,73.15
2022-08-28T08:14:03.740Z,73.26
2022-08-28T08:16:36.247Z,73.40
2022-08-28T08:19:03.908Z,72.45
2022-08-28T08:21:30.843Z,72.68
2022-08-28T08:23:57.730Z,71.64
2022-08-28T08:26:26.202Z,70.84
2022-08-28T08:28:52.554Z,72.15
2022-08-28T08:31:18.965Z,70.71
2022-08-28T08:33:49.605Z,70.92
2022-08-28T08:36:19.342Z,71.68
2022-08-28T08:38:46.169Z,71.42
2022-08-28T08:41:20.179Z,69.94
2022-08-28T08:43:58.452Z,70.44
2022-08-28T08:46:46.124Z,69.36
2022-08-28T08:49:20.524Z,68.53
2022-08-28T08:52:12.154Z,67.59
2022-08-28T08:54:50.971Z,66.83
2022-08-28T08:57:18.211Z,66.49
2022-08-28T08:59:44.627Z,67.73
2022-08-28T09:02:17.991Z,68.10
2022-08-28T09:04:52.467Z,67.31
2022-08-28T09:07:40.527Z,67.78
2022-08-28T09:10:12.210Z,66.62
2022-08-28T09:13:03.067Z,64.91
2022-08-28T09:15:42.637Z,65.00
2022-08-28T09:18:14.018Z,64.73
2022-08-28T09:20:41.879Z,64.62
2022-08-28T09:23:12.809Z,64.01
2022-08-28T09:25:51.553Z,63.32
2022-08-28T09:28:25.754Z,65.13
2022-08-28T09:31:00.479Z,63.39
2022-08-28T09:33:32.993Z,63.54
2022-08-28T09:36:32.929Z,65.38
2022-08-28T09:39:20.348Z,65.54
2022-08-28T09:42:41.189Z,64.87
2022-08-28T09:45:21.142Z,63.32
2022-08-28T09:47:54.587Z,65.36
2022-08-28T09:50:37.337Z,64.93
2022-08-28T09:53:09.772Z,64.50
2022-08-28T09:55:48.764Z,62.77
2022-08-28T09:58:15.733Z,62.71
2022-08-28T10:00:54.443Z,62.97
2022-08-28T10:03:33.869Z,64.14
2022-08-28T10:06:04.502Z,63.26
2022-08-28T10:08:43.071Z,61.09
2022-08-28T10:11:23.789Z,59.77
2022-08-28T10:14:05.199Z,58.95
2022-08-28T10:16:51.005Z,59.27
2022-08-28T10:19:41.745Z,60.25
2022-08-28T10:22:34.719Z,57.51
2022-08-28T10:25:20.531Z,59.37
2022-08-28T10:28:26.968Z,59.07
2022-08-28T10:31:08.989Z,59.24
2022-08-28T10:33:51.554Z,59.43
2022-08-28T10:36:33.215Z,57.96
2022-08-28T10:39:33.829Z,59.16
2022-08-28T10:42:03.097Z,58.18
2022-08-28T10:44:44.979Z,58.64
2022-08-28T10:47:13.237Z,56.20
2022-08-28T10:49:46.763Z,56.77
2022-08-28T10:52:38.913Z,55.44
2022-08-28T10:55:08.080Z,56.11
2022-08-28T10:58:03.312Z,56.04
2022-08-28T11:00:30.211Z,55.45
2022-08-28T11:03:04.734Z,54.35
2022-08-28T11:05:52.458Z,56.28
2022-08-28T11:08:40.290Z,57.55
2022-08-28T11:11:13.295Z,59.10
2022-08-28T11:13:45.889Z,58.57
2022-08-28T11:16:32.633Z,59.12
2022-08-28T11:19:17.802Z,57.31
2022-08-28T11:21:53.020Z,57.98
2022-08-28T11:24:28.541Z,56.77
2022-08-28T11:27:16.930Z,56.21
2022-08-28T11:30:11.103Z,57.63
2022-08-28T11:32:46.862Z,59.44
2022-08-28T11:35:34.816Z,62.01
2022-08-28T11:38:01.276Z,63.32
2022-08-28T11:40:30.468Z,63.63
2022-08-28T11:43:16.097Z,62.64
2022-08-28T11:45:46.890Z,62.82
2022-08-28T11:48:24.227Z,60.78
2022-08-28T11:51:07.473Z,60.52
2022-08-28T11:54:04.750Z,59.27
2022-08-28T11:57:03.886Z,58.97
2022-08-28T11:59:55.242Z,57.59
2022-08-28T12:02:39.961Z,58.36
2022-08-28T12:05:11.329Z,60.31
2022-08-28T12:07:40.325Z,59.17
2022-08-28T12:10:22.052Z,57.86
2022-08-28T12:12:49.782Z,58.77
2022-08-28T12:15:28.340Z,57.84
2022-08-28T12:17:54.697Z,57.95
2022-08-28T12:20:28.154Z,58.11
2022-08-28T12:23:01.311Z,57.01
2022-08-28T12:25:42.300Z,57.34
2022-08-28T12:28:27.630Z,57.13
2022-08-28T12:31:06.309Z,57.79
2022-08-28T12:33:42.151Z,58.49
2022-08-28T12:36:15.956Z,59.89
2022-08-28T12:38:49.492Z,59.31
2022-08-28T12:41:17.816Z,58.32
2022-08-28T12:43:48.243Z,58.37
2022-08-28T12:46:28.892Z,58.79
2022-08-28T12:49:01.217Z,57.24
2022-08-28T12:51:37.051Z,57.82
2022-08-28T12:54:08.868Z,55.48
2022-08-28T12:56:37.623Z,56.77
2022-08-28T12:59:27.253Z,54.80
2022-08-28T13:01:54.721Z,55.02
2022-08-28T13:04:31.549Z,54.51
2022-08-28T13:07:10.677Z,54.06
2022-08-28T13:09:37.861Z,52.18
2022-08-28T13:12:07.228Z,53.93
2022-08-28T13:14:44.097Z,52.49
2022-08-28T13:17:14.290Z,53.69
2022-08-28T13:19:41.580Z,53.02
2022-08-28T13:22:29.555Z,54.72
2022-08-28T13:25:01.656Z,54.76
2022-08-28T13:27:28.605Z,55.28
2022-08-28T13:30:04.728Z,57.17
2022-08-28T13:32:33.942Z,58.47
2022-08-28T13:35:13.487Z,60.81
2022-08-28T13:37:45.806Z,60.60
2022-08-28T13:40:38.197Z,60.97
2022-08-28T13:43:06.936Z,61.63
2022-08-28T13:45:42.646Z,61.83
2022-08-28T13:48:11.910Z,63.14
2022-08-28T13:50:41.606Z,63.01
2022-08-28T13:53:08.067Z,62.04
2022-08-28T13:55:34.557Z,62.80
2022-08-28T13:58:00.924Z,61.96
2022-08-28T14:00:30.003Z,63.32
2022-08-28T14:03:16.417Z,63.48
2022-08-28T14:05:46.979Z,62.96
2022-08-28T14:08:13.487Z,62.77
2022-08-28T14:10:40.338Z,64.34
2022-08-28T14:13:07.005Z,63.23
2022-08-28T14:15:33.499Z,62.82
2022-08-28T14:17:59.904Z,62.20
2022-08-28T14:20:26.509Z,61.81
2022-08-28T14:22:52.887Z,61.61
2022-08-28T14:25:19.288Z,60.72
2022-08-28T14:27:46.232Z,61.55
2022-08-28T14:30:13.008Z,61.17
2022-08-28T14:32:39.367Z,60.68
2022-08-28T14:35:06.577Z,60.44
2022-08-28T14:37:33.233Z,60.29
2022-08-28T14:39:59.903Z,60.84
2022-08-28T14:42:26.844Z,59.47
2022-08-28T14:44:53.807Z,60.18
2022-08-28T14:47:20.391Z,59.84
2022-08-28T14:49:46.855Z,60.97
2022-08-28T14:52:13.420Z,61.36
2022-08-28T14:54:40.448Z,60.29
2022-08-28T14:57:06.844Z,61.19
2022-08-28T14:59:33.892Z,61.13
2022-08-28T15:02:01.683Z,60.86
2022-08-28T15:04:34.476Z,61.82
2022-08-28T15:07:05.344Z,61.54
2022-08-28T15:09:35.522Z,62.82
2022-08-28T15:12:02.084Z,62.84
2022-08-28T15:14:28.515Z,63.81
2022-08-28T15:16:54.925Z,63.96
2022-08-28T15:19:23.223Z,64.19
2022-08-28T15:21:52.944Z,64.90
2022-08-28T15:24:23.102Z,64.68
2022-08-28T15:26:50.443Z,64.86
2022-08-28T15:29:17.257Z,64.01
2022-08-28T15:31:47.432Z,64.14
2022-08-28T15:34:17.812Z,65.37
2022-08-28T15:36:45.341Z,65.03
2022-08-28T15:39:40.946Z,65.18
2022-08-28T15:42:08.051Z,66.17
2022-08-28T15:44:34.534Z,66.52
2022-08-28T15:47:02.910Z,66.28
2022-08-28T15:49:32.198Z,67.04
2022-08-28T15:52:03.008Z,67.48
2022-08-28T15:54:31.928Z,69.20
2022-08-28T15:56:58.484Z,68.46
2022-08-28T15:59:24.888Z,67.82
2022-08-28T16:02:12.190Z,69.19
2022-08-28T16:04:38.756Z,69.07
2022-08-28T16:07:05.228Z,68.19
2022-08-28T16:09:31.672Z,67.92
2022-08-28T16:11:58.246Z,67.55
2022-08-28T16:14:24.634Z,67.34
2022-08-28T16:16:51.087Z,68.14
2022-08-28T16:19:17.738Z,67.05
2022-08-28T16:21:44.155Z,67.96
2022-08-28T16:24:10.536Z,67.49
2022-08-28T16:26:36.896Z,67.28
2022-08-28T16:29:03.557Z,68.93
2022-08-28T16:31:33.786Z,67.55
2022-08-28T16:34:01.610Z,67.58
2022-08-28T16:36:28.679Z,69.08
2022-08-28T16:39:00.293Z,69.02
2022-08-28T16:41:31.931Z,69.29
2022-08-28T16:43:58.828Z,69.58
2022-08-28T16:46:26.446Z,71.43
2022-08-28T16:48:53.810Z,70.49
2022-08-28T16:51:20.803Z,71.25
2022-08-28T16:53:47.678Z,71.93
2022-08-28T16:56:17.260Z,72.57
2022-08-28T16:58:44.798Z,72.80
2022-08-28T17:01:13.805Z,73.22
2022-08-28T17:03:41.600Z,73.42
2022-08-28T17:06:15.707Z,74.50
2022-08-28T17:08:42.639Z,73.36
2022-08-28T17:11:09.010Z,73.67
2022-08-28T17:13:36.199Z,74.27
2022-08-28T17:16:03.309Z,73.91
2022-08-28T17:18:29.954Z,74.19
2022-08-28T17:21:15.232Z,75.47
2022-08-28T17:23:41.723Z,74.67
2022-08-28T17:26:08.514Z,75.14
2022-08-28T17:28:35.060Z,75.07
2022-08-28T17:31:01.787Z,75.10
2022-08-28T17:33:28.384Z,74.96
2022-08-28T17:35:55.602Z,75.64
2022-08-28T17:38:22.149Z,76.07
2022-08-28T17:40:48.539Z,76.41
2022-08-28T17:43:14.940Z,75.87
2022-08-28T17:45:41.336Z,76.50
2022-08-28T17:48:07.779Z,76.44
2022-08-28T17:50:34.367Z,76.30
2022-08-28T17:53:00.791Z,77.26
2022-08-28T17:55:29.273Z,77.04
2022-08-28T17:57:55.636Z,77.56
2022-08-28T18:00:22.228Z,77.55
2022-08-28T18:02:51.266Z,77.40
2022-08-28T18:05:18.000Z,78.22
2022-08-28T18:07:44.376Z,79.04
2022-08-28T18:10:11.869Z,79.28
2022-08-28T18:12:39.822Z,79.65
2022-08-28T18:15:09.005Z,80.24
2022-08-28T18:17:36.912Z,80.47
2022-08-28T18:20:06.214Z,80.16
2022-08-28T18:22:32.621Z,81.23
2022-08-28T18:24:59.048Z,80.80
2022-08-28T18:27:27.740Z,81.24
2022-08-28T18:29:54.340Z,81.51
2022-08-28T18:32:20.734Z,82.07
2022-08-28T18:34:47.162Z,82.23
2022-08-28T18:37:13.665Z,82.29
2022-08-28T18:39:40.144Z,82.73
2022-08-28T18:42:09.327Z,83.01
2022-08-28T18:44:35.696Z,83.65
2022-08-28T18:47:02.132Z,83.33
2022-08-28T18:49:28.755Z,83.55
2022-08-28T18:51:55.337Z,84.14
2022-08-28T18:54:22.396Z,84.39
2022-08-28T18:56:50.467Z,84.83
2022-08-28T18:59:17.382Z,85.20
2022-08-28T19:01:44.354Z,85.11
2022-08-28T19:04:10.866Z,84.87
2022-08-28T19:06:37.336Z,85.28
2022-08-28T19:09:05.511Z,85.43
2022-08-28T19:11:32.072Z,85.82
2022-08-28T19:13:59.408Z,86.17
2022-08-28T19:16:31.593Z,86.29
2022-08-28T19:18:58.019Z,86.79
2022-08-28T19:21:24.725Z,87.17
2022-08-28T19:23:56.167Z,87.78
2022-08-28T19:26:24.450Z,88.16
2022-08-28T19:28:51.435Z,88.94
2022-08-28T19:31:18.203Z,88.99
2022-08-28T19:33:46.271Z,89.28
2022-08-28T19:36:13.639Z,89.69
2022-08-28T19:38:40.680Z,89.54
2022-08-28T19:41:08.891Z,89.74
2022-08-28T19:43:44.221Z,89.56
2022-08-28T19:46:18.253Z,90.13
2022-08-28T19:48:47.637Z,90.20
2022-08-28T19:51:22.320Z,90.40
2022-08-28T19:53:56.158Z,90.41
2022-08-28T19:56:26.662Z,90.61
2022-08-28T19:58:54.739Z,91.11
2022-08-28T20:01:21.289Z,91.53
2022-08-28T20:03:47.930Z,91.80
2022-08-28T20:06:14.327Z,92.30
2022-08-28T20:08:40.698Z,92.66
2022-08-28T20:11:07.280Z,93.02
2022-08-28T20:13:33.718Z,93.82
2022-08-28T20:16:04.372Z,94.37
2022-08-28T20:18:30.810Z,94.88
2022-08-28T20:20:57.200Z,95.17
2022-08-28T20:23:23.780Z,95.80
2022-08-28T20:25:51.101Z,95.79
2022-08-28T20:28:18.537Z,95.85
2022-08-28T20:30:46.651Z,95.55
2022-08-28T20:33:13.224Z,95.86
2022-08-28T20:35:40.048Z,96.24
2022-08-28T20:38:06.440Z,96.72
2022-08-28T20:40:32.976Z,96.54
2022-08-28T20:43:00.428Z,96.43
2022-08-28T20:45:27.179Z,96.15
2022-08-28T20:47:53.821Z,96.24
2022-08-28T20:50:20.450Z,96.19
2022-08-28T20:52:46.843Z,96.21
2022-08-28T20:55:14.040Z,95.82
2022-08-28T20:57:40.954Z,96.08
2022-08-28T21:00:09.587Z,95.95
2022-08-28T21:02:37.077Z,96.32
2022-08-28T21:05:04.178Z,96.40
2022-08-28T21:07:31.038Z,96.68
2022-08-28T21:10:05.204Z,96.91
2022-08-28T21:12:34.748Z,97.41
2022-08-28T21:15:01.309Z,97.45
2022-08-28T21:17:29.796Z,97.34
2022-08-28T21:20:10.265Z,97.67
2022-08-28T21:22:37.007Z,97.92
2022-08-28T21:25:05.549Z,97.67
2022-08-28T21:27:31.942Z,97.95
2022-08-28T21:30:00.269Z,98.67
2022-08-28T21:32:28.594Z,98.64
2022-08-28T21:34:55.074Z,99.20
2022-08-28T21:37:21.555Z,99.26
2022-08-28T21:39:47.978Z,99.82
2022-08-28T21:42:14.428Z,100.00
2022-08-28T21:44:40.894Z,100.00
2022-08-28T21:47:14.851Z,100.00
2022-08-28T21:49:41.483Z,100.00
2022-08-28T21:52:07.909Z,100.00
2022-08-28T21:54:34.496Z,100.00
2022-08-28T21:57:00.848Z,100.00
2022-08-28T21:59:35.958Z,100.00
2022-08-28T22:02:04.457Z,100.00
2022-08-28T22:04:31.046Z,100.00
2022-08-28T22:06:57.535Z,100.00
2022-08-28T22:09:23.986Z,100.00
2022-08-28T22:11:50.390Z,100.00
2022-08-28T22:14:16.730Z,100.00
2022-08-28T22:16:44.639Z,99.95
2022-08-28T22:19:11.028Z,100.00
2022-08-28T22:21:56.761Z,100.00
2022-08-28T22:24:23.557Z,100.00
2022-08-28T22:26:50.174Z,100.00
2022-08-28T22:29:23.724Z,100.00
2022-08-28T22:31:50.297Z,100.00
2022-08-28T22:34:16.721Z,100.00
2022-08-28T22:36:43.074Z,100.00
2022-08-28T22:39:09.508Z,100.00
2022-08-28T22:41:37.270Z,100.00
2022-08-28T22:44:03.846Z,100.00
2022-08-28T22:46:30.199Z,100.00
2022-08-28T22:48:56.673Z,100.00
2022-08-28T22:51:23.083Z,100.00
2022-08-28T22:53:49.485Z,100.00
2022-08-28T22:56:16.851Z,100.00
2022-08-28T22:58:43.838Z,100.00
2022-08-28T23:01:18.040Z,100.00
2022-08-28T23:03:45.315Z,100.00
2022-08-28T23:06:11.917Z,100.00
2022-08-28T23:08:38.407Z,100.00
2022-08-28T23:11:05.030Z,100.00
2022-08-28T23:13:32.911Z,100.00
2022-08-28T23:16:00.373Z,100.00
2022-08-28T23:18:27.705Z,100.00
2022-08-28T23:20:54.263Z,100.00
2022-08-28T23:23:20.880Z,100.00
2022-08-28T23:25:47.275Z,100.00
2022-08-28T23:28:13.669Z,100.00
2022-08-28T23:30:41.270Z,100.00
2022-08-28T23:33:23.064Z,100.00
2022-08-28T23:35:51.262Z,100.00
2022-08-28T23:38:17.754Z,100.00
2022-08-28T23:40:44.369Z,100.00
2022-08-28T23:43:11.095Z,100.00
2022-08-28T23:45:40.205Z,100.00
2022-08-28T23:48:07.432Z,100.00
2022-08-28T23:50:34.157Z,100.00
2022-08-28T23:53:01.208Z,100.00
2022-08-28T23:55:27.865Z,100.00
2022-08-28T23:57:54.313Z,100.00
